Millwood, Georgia
Current Conditions -  °F | °C
As of 3:10 AM on Tuesday 27 Jan 2015 (Local Time) from KAYS Reporting Station
Overcast Overcast  
Wind Chill: 38°   Ceiling: 9000
Heat Index: 43°   Visibility: 10mi
Dew Point: 37°   Wind: 7mph
Humidity: 81%   Direction: 290°WNW
Pressure: 29.97"   Gusts: NA
Location:  31.27°N, 82.66°W
Report Text: KAYS 270810Z AUTO 29006KT 10SM OVC090 06/03 A2997 RMK AO2 T00590028
Loading
Personal Weather Stations






























Interactive Weather Map New forecast layout! Learn more

10-Day Weather Forecast

Advertisements
Track Severe Weather on mobile